Time;durP1;ratioP1;P1;durP2;ratioP2;P2;SDS_P1;SDS_P2;PMS_P1;PMS_P2;Temp;Humidity;BMP_temperature;BMP_pressure;BME280_temperature;BME280_humidity;BME280_pressure;Samples;Min_cycle;Max_cycle;Signal;HPM_P1;HPM_P2
2022/07/05 00:01:45;;;;;;;2.62;2.42;;;18.10;50.80;;;;;;641136;221;26807;-70
2022/07/05 00:04:12;;;;;;;2.92;2.58;;;18.20;51.00;;;;;;639410;221;26530;-70
2022/07/05 00:07:17;;;;;;;2.50;2.30;;;18.10;50.70;;;;;;647587;221;27276;-70
2022/07/05 00:09:08;;;;;;;4.53;2.50;;;18.10;50.60;;;;;;636631;221;26516;-69
2022/07/05 00:11:35;;;;;;;2.80;2.53;;;18.10;50.60;;;;;;639284;221;27311;-69
2022/07/05 00:14:02;;;;;;;2.50;2.30;;;18.10;50.60;;;;;;638000;221;26580;-69
2022/07/05 00:16:29;;;;;;;2.42;2.20;;;18.10;50.80;;;;;;638851;224;26795;-69
2022/07/05 00:18:57;;;;;;;2.65;2.45;;;18.00;50.80;;;;;;638769;223;26516;-70
2022/07/05 00:21:25;;;;;;;3.33;2.62;;;17.90;50.90;;;;;;646775;221;26582;-69
2022/07/05 00:23:53;;;;;;;2.42;2.22;;;17.90;50.90;;;;;;641198;221;26506;-70
2022/07/05 00:26:21;;;;;;;2.30;2.10;;;17.90;51.00;;;;;;646655;221;26569;-69
2022/07/05 00:28:48;;;;;;;2.30;2.10;;;17.90;50.90;;;;;;638603;221;26519;-70
2022/07/05 00:31:16;;;;;;;2.62;2.42;;;17.90;51.10;;;;;;641542;221;26618;-70
2022/07/05 00:33:44;;;;;;;2.17;1.98;;;17.90;51.30;;;;;;642201;221;26796;-69
2022/07/05 00:36:11;;;;;;;3.47;2.10;;;17.90;51.40;;;;;;644508;221;26798;-70
2022/07/05 00:38:38;;;;;;;3.03;2.47;;;17.90;51.40;;;;;;650724;221;26515;-69
2022/07/05 00:41:05;;;;;;;2.25;2.15;;;17.90;51.50;;;;;;646987;217;26765;-69
2022/07/05 00:43:32;;;;;;;2.50;2.30;;;17.90;51.60;;;;;;652051;220;26570;-69
2022/07/05 00:46:00;;;;;;;3.28;2.50;;;17.90;51.70;;;;;;643563;220;26561;-70
2022/07/05 00:48:27;;;;;;;2.08;1.98;;;17.90;52.10;;;;;;647060;222;26601;-70
2022/07/05 00:50:54;;;;;;;2.35;2.15;;;17.80;51.80;;;;;;639662;222;26531;-69
2022/07/05 00:53:21;;;;;;;2.65;2.42;;;17.90;51.90;;;;;;639319;221;26794;-69
2022/07/05 00:55:48;;;;;;;2.58;2.12;;;17.90;52.10;;;;;;644053;222;26509;-69
2022/07/05 00:58:16;;;;;;;3.22;2.47;;;17.70;52.10;;;;;;640039;221;26739;-69
2022/07/05 01:00:43;;;;;;;3.20;2.20;;;17.80;52.20;;;;;;647597;218;26594;-69
2022/07/05 01:03:12;;;;;;;2.10;1.90;;;17.70;52.10;;;;;;639542;221;26752;-69
2022/07/05 01:05:37;;;;;;;4.22;1.98;;;17.70;52.40;;;;;;637919;224;26550;-69
2022/07/05 01:08:05;;;;;;;2.03;1.92;;;17.80;52.90;;;;;;645554;219;27090;-69
2022/07/05 01:10:33;;;;;;;2.25;1.87;;;17.80;53.30;;;;;;638931;222;26576;-70
2022/07/05 01:13:01;;;;;;;2.37;2.00;;;17.80;53.40;;;;;;650786;221;26469;-69
2022/07/05 01:15:29;;;;;;;2.80;2.20;;;17.80;53.40;;;;;;640725;221;26530;-69
2022/07/05 01:17:56;;;;;;;3.22;2.08;;;17.80;53.90;;;;;;641449;221;26890;-69
2022/07/05 01:20:24;;;;;;;1.90;1.80;;;17.70;54.50;;;;;;646745;221;26821;-69
2022/07/05 01:22:52;;;;;;;2.10;1.80;;;17.70;54.80;;;;;;637850;221;26483;-70
2022/07/05 01:25:21;;;;;;;1.87;1.77;;;17.70;55.30;;;;;;638539;221;26487;-69
2022/07/05 01:27:48;;;;;;;1.92;1.83;;;17.70;55.30;;;;;;638060;224;27167;-70
2022/07/05 01:30:15;;;;;;;2.35;1.83;;;17.60;55.60;;;;;;647365;218;26590;-70
2022/07/05 01:32:43;;;;;;;3.08;2.00;;;17.60;55.60;;;;;;639444;221;26550;-71
2022/07/05 01:35:11;;;;;;;2.05;1.52;;;17.50;55.60;;;;;;642151;223;26562;-69
2022/07/05 01:37:39;;;;;;;1.60;1.50;;;17.50;55.80;;;;;;639601;223;26564;-69
2022/07/05 01:40:08;;;;;;;2.37;2.17;;;17.40;55.90;;;;;;647298;221;26575;-69
2022/07/05 01:42:35;;;;;;;1.80;1.70;;;17.40;55.90;;;;;;650565;221;26578;-70
2022/07/05 01:45:02;;;;;;;2.00;1.80;;;17.40;55.90;;;;;;645138;221;26988;-70
2022/07/05 01:47:29;;;;;;;1.77;1.65;;;17.30;55.60;;;;;;638660;225;26576;-69
2022/07/05 01:49:58;;;;;;;1.70;1.60;;;17.30;56.00;;;;;;651214;221;26549;-69
2022/07/05 01:52:25;;;;;;;1.73;1.55;;;17.20;55.80;;;;;;647689;218;26567;-69
2022/07/05 01:54:53;;;;;;;2.72;1.87;;;17.20;55.80;;;;;;641106;220;26803;-69
2022/07/05 01:57:20;;;;;;;2.42;1.90;;;17.20;55.90;;;;;;641404;220;26563;-71
2022/07/05 01:59:47;;;;;;;2.17;1.50;;;17.10;55.90;;;;;;643364;221;26829;-70
2022/07/05 02:02:14;;;;;;;1.95;1.80;;;17.00;55.90;;;;;;644331;221;26578;-70
2022/07/05 02:04:41;;;;;;;1.60;1.50;;;17.00;56.00;;;;;;639500;224;26740;-70
2022/07/05 02:07:09;;;;;;;2.12;1.60;;;17.00;56.20;;;;;;639362;221;26876;-69
2022/07/05 02:09:36;;;;;;;2.60;1.70;;;17.00;56.30;;;;;;639297;221;26542;-70
2022/07/05 02:12:04;;;;;;;1.45;1.35;;;16.90;56.30;;;;;;646106;221;26740;-70
2022/07/05 02:14:31;;;;;;;2.20;1.60;;;16.90;56.50;;;;;;640753;221;26556;-69
2022/07/05 02:16:59;;;;;;;1.58;1.48;;;16.80;56.60;;;;;;647931;221;26605;-69
2022/07/05 02:19:26;;;;;;;1.70;1.42;;;16.80;56.70;;;;;;640146;222;26570;-69
2022/07/05 02:21:53;;;;;;;1.95;1.73;;;16.70;56.80;;;;;;647029;221;26817;-70
2022/07/05 02:24:20;;;;;;;1.50;1.40;;;16.60;57.00;;;;;;638398;224;26593;-70
2022/07/05 02:26:48;;;;;;;1.33;1.33;;;16.60;57.20;;;;;;645627;220;26670;-70
2022/07/05 02:29:15;;;;;;;2.15;1.60;;;16.50;57.50;;;;;;638218;221;26836;-69
2022/07/05 02:31:42;;;;;;;1.60;1.50;;;16.40;57.80;;;;;;646004;221;26580;-69
2022/07/05 02:34:10;;;;;;;2.75;1.70;;;16.40;58.10;;;;;;650231;221;26802;-69
2022/07/05 02:36:37;;;;;;;1.92;1.80;;;16.40;58.30;;;;;;650635;221;26588;-69
2022/07/05 02:39:04;;;;;;;1.48;1.37;;;16.30;58.60;;;;;;650372;221;27195;-68
2022/07/05 02:41:31;;;;;;;3.22;1.75;;;16.30;59.00;;;;;;638471;221;26547;-69
2022/07/05 02:43:58;;;;;;;1.42;1.33;;;16.20;59.30;;;;;;638762;223;26792;-69
2022/07/05 02:46:26;;;;;;;1.62;1.30;;;16.20;59.60;;;;;;650463;221;26573;-70
2022/07/05 02:48:53;;;;;;;2.05;1.20;;;16.20;59.90;;;;;;650690;221;26527;-69
2022/07/05 02:51:21;;;;;;;1.55;1.45;;;16.10;60.90;;;;;;637431;221;26558;-69
2022/07/05 02:53:49;;;;;;;1.95;1.20;;;16.00;61.10;;;;;;638459;221;26532;-69
2022/07/05 02:56:17;;;;;;;1.95;1.50;;;16.00;61.80;;;;;;637467;224;26582;-70
2022/07/05 02:58:44;;;;;;;1.33;1.30;;;15.90;61.70;;;;;;638378;219;26558;-74
2022/07/05 03:01:11;;;;;;;1.23;1.15;;;15.90;62.80;;;;;;647419;221;26581;-73
2022/07/05 03:03:38;;;;;;;1.27;1.25;;;15.80;63.30;;;;;;643575;221;26795;-74
2022/07/05 03:06:06;;;;;;;1.52;1.20;;;15.80;63.90;;;;;;639243;220;26483;-74
2022/07/05 03:08:33;;;;;;;1.42;1.15;;;15.70;64.30;;;;;;639476;224;26524;-73
2022/07/05 03:11:00;;;;;;;1.02;1.00;;;15.70;65.10;;;;;;647761;221;26900;-73
2022/07/05 03:13:27;;;;;;;1.40;1.30;;;15.60;65.90;;;;;;638877;221;26566;-73
2022/07/05 03:15:54;;;;;;;1.40;1.20;;;15.60;66.60;;;;;;648453;221;27107;-73
2022/07/05 03:18:22;;;;;;;1.15;1.15;;;15.50;67.90;;;;;;642994;220;26530;-74
2022/07/05 03:20:49;;;;;;;2.60;1.40;;;15.50;68.60;;;;;;648503;221;26822;-75
2022/07/05 03:23:17;;;;;;;1.30;1.20;;;15.50;70.00;;;;;;638793;221;26571;-74
2022/07/05 03:25:45;;;;;;;1.40;1.15;;;15.40;70.70;;;;;;638054;225;26595;-74
2022/07/05 03:28:13;;;;;;;1.40;1.30;;;15.40;71.40;;;;;;640648;221;26514;-74
2022/07/05 03:30:41;;;;;;;1.17;1.15;;;15.40;71.80;;;;;;639141;222;26526;-75
2022/07/05 03:33:10;;;;;;;2.65;1.65;;;15.40;72.90;;;;;;637985;224;26536;-75
2022/07/05 03:35:38;;;;;;;1.75;1.02;;;15.40;73.50;;;;;;648773;221;26509;-74
2022/07/05 03:38:05;;;;;;;1.23;1.12;;;15.40;73.50;;;;;;644055;219;26566;-74
2022/07/05 03:40:32;;;;;;;1.00;1.00;;;15.40;73.90;;;;;;647730;218;26802;-74
2022/07/05 03:43:00;;;;;;;3.37;1.25;;;15.40;75.00;;;;;;650776;220;26569;-74
2022/07/05 03:45:28;;;;;;;1.40;1.30;;;15.40;75.50;;;;;;641691;221;26573;-74
2022/07/05 03:47:58;;;;;;;0.95;0.90;;;15.40;75.50;;;;;;638833;221;26574;-75
2022/07/05 03:50:25;;;;;;;1.65;1.10;;;15.40;76.10;;;;;;638672;221;26579;-75
2022/07/05 03:52:53;;;;;;;1.27;1.10;;;15.40;77.10;;;;;;638642;221;26519;-75
2022/07/05 03:55:21;;;;;;;1.52;1.30;;;15.30;77.70;;;;;;639102;221;26554;-74
2022/07/05 03:57:49;;;;;;;1.20;1.10;;;15.40;78.00;;;;;;639962;221;26544;-75
2022/07/05 04:00:17;;;;;;;0.93;0.93;;;15.40;77.90;;;;;;643211;221;26773;-75
2022/07/05 04:02:44;;;;;;;1.15;1.10;;;15.50;78.10;;;;;;638852;225;26551;-75
2022/07/05 04:05:12;;;;;;;1.08;1.08;;;15.60;77.90;;;;;;638439;221;26507;-75
2022/07/05 04:07:46;;;;;;;0.77;0.77;;;15.60;77.60;;;;;;641636;221;26513;-74
2022/07/05 04:10:14;;;;;;;0.90;0.90;;;15.60;77.60;;;;;;642975;221;26596;-75
2022/07/05 04:12:41;;;;;;;1.00;0.98;;;15.70;77.10;;;;;;637425;226;26581;-75
2022/07/05 04:15:11;;;;;;;1.40;1.02;;;15.90;77.30;;;;;;639561;223;26607;-75
2022/07/05 04:17:48;;;;;;;0.88;0.88;;;15.80;77.10;;;;;;642308;222;26585;-75
2022/07/05 04:20:16;;;;;;;1.08;0.98;;;16.00;76.80;;;;;;639787;221;26487;-75
2022/07/05 04:22:44;;;;;;;2.78;1.23;;;16.00;76.50;;;;;;638291;225;26560;-75
2022/07/05 04:25:17;;;;;;;1.48;1.00;;;16.00;76.50;;;;;;639047;221;26532;-75
2022/07/05 04:27:45;;;;;;;0.88;0.88;;;16.20;74.90;;;;;;643623;221;27199;-75
2022/07/05 04:30:13;;;;;;;1.08;0.90;;;16.20;74.90;;;;;;639995;221;26890;-75
2022/07/05 04:32:40;;;;;;;1.10;1.10;;;16.30;74.30;;;;;;639546;225;26522;-75
2022/07/05 04:35:07;;;;;;;1.65;1.10;;;16.40;73.70;;;;;;643839;222;26727;-75
2022/07/05 04:37:35;;;;;;;1.30;1.20;;;16.50;73.10;;;;;;643492;221;26565;-74
2022/07/05 04:40:02;;;;;;;1.70;0.88;;;16.60;72.80;;;;;;638204;224;26782;-70
2022/07/05 04:42:29;;;;;;;1.30;1.20;;;16.60;72.00;;;;;;638379;222;26562;-74
2022/07/05 04:44:56;;;;;;;0.80;0.80;;;16.70;71.50;;;;;;645229;221;26832;-74
2022/07/05 04:47:25;;;;;;;1.80;1.20;;;16.90;70.70;;;;;;638846;225;26558;-74
2022/07/05 04:49:53;;;;;;;0.95;0.93;;;16.90;70.30;;;;;;638861;221;26570;-72
2022/07/05 04:52:20;;;;;;;0.93;0.93;;;16.90;70.30;;;;;;648444;221;26588;-70
2022/07/05 04:54:48;;;;;;;69.43;15.38;;;17.10;69.70;;;;;;644303;221;26594;-71
2022/07/05 04:57:16;;;;;;;48.95;10.60;;;17.10;69.60;;;;;;640777;221;26512;-70
2022/07/05 04:59:43;;;;;;;44.35;10.60;;;17.10;69.30;;;;;;638768;221;26886;-71
2022/07/05 05:02:10;;;;;;;47.78;9.98;;;17.20;68.70;;;;;;639647;221;26527;-72
2022/07/05 05:04:38;;;;;;;43.60;8.38;;;17.40;68.30;;;;;;643278;221;26573;-72
2022/07/05 05:07:07;;;;;;;33.78;8.18;;;17.50;67.40;;;;;;637380;224;26567;-72
2022/07/05 05:09:36;;;;;;;30.55;7.60;;;17.50;66.90;;;;;;638808;221;26543;-72
2022/07/05 05:12:03;;;;;;;32.75;7.78;;;17.60;66.20;;;;;;637287;225;26564;-73
2022/07/05 05:14:31;;;;;;;32.60;7.95;;;17.60;66.20;;;;;;642125;221;26540;-71
2022/07/05 05:16:58;;;;;;;21.85;5.95;;;17.80;65.90;;;;;;638612;224;26931;-72
2022/07/05 05:19:26;;;;;;;10.23;3.42;;;17.80;65.60;;;;;;638879;225;26627;-72
2022/07/05 05:21:53;;;;;;;5.62;1.70;;;18.00;65.70;;;;;;640480;221;26551;-72
2022/07/05 05:24:20;;;;;;;5.00;1.55;;;18.00;65.40;;;;;;638848;221;26793;-72
2022/07/05 05:26:49;;;;;;;3.90;1.80;;;18.00;65.70;;;;;;637973;223;26565;-72
2022/07/05 05:29:15;;;;;;;5.40;1.30;;;18.10;65.90;;;;;;638720;224;26865;-72
2022/07/05 05:31:42;;;;;;;6.07;1.77;;;18.20;65.60;;;;;;638499;224;26532;-72
2022/07/05 05:34:09;;;;;;;3.37;1.60;;;18.20;64.90;;;;;;638758;224;26827;-71
2022/07/05 05:36:36;;;;;;;2.17;1.77;;;18.30;64.60;;;;;;638086;223;26498;-72
2022/07/05 05:39:03;;;;;;;4.53;1.50;;;18.30;64.50;;;;;;638037;224;26751;-72
2022/07/05 05:41:31;;;;;;;2.15;1.30;;;18.40;64.40;;;;;;638083;223;26526;-72
2022/07/05 05:43:58;;;;;;;2.60;1.27;;;18.50;63.60;;;;;;638078;223;27014;-72
2022/07/05 05:46:26;;;;;;;2.75;1.48;;;18.70;61.60;;;;;;637852;224;26550;-70
2022/07/05 05:48:54;;;;;;;3.28;1.77;;;18.80;59.30;;;;;;637736;224;26507;-70
2022/07/05 05:51:22;;;;;;;3.95;1.40;;;18.80;59.50;;;;;;637675;223;26601;-70
2022/07/05 05:53:50;;;;;;;2.05;1.15;;;18.90;58.60;;;;;;637774;224;26560;-71
2022/07/05 05:56:18;;;;;;;3.15;1.35;;;18.90;58.20;;;;;;637743;225;26566;-70
2022/07/05 05:58:45;;;;;;;2.85;1.40;;;18.90;58.20;;;;;;637741;224;26527;-71
2022/07/05 06:01:13;;;;;;;4.32;1.45;;;19.10;57.50;;;;;;637759;224;26585;-70
2022/07/05 06:03:40;;;;;;;2.97;1.60;;;19.20;56.40;;;;;;637552;224;26567;-72
2022/07/05 06:06:07;;;;;;;2.40;1.30;;;19.30;56.30;;;;;;637428;224;27134;-71
2022/07/05 06:08:34;;;;;;;1.90;1.20;;;19.40;55.40;;;;;;637348;225;26547;-70
2022/07/05 06:11:04;;;;;;;1.42;1.25;;;19.50;55.20;;;;;;637426;224;26522;-71
2022/07/05 06:13:29;;;;;;;1.12;1.10;;;19.60;55.20;;;;;;637380;225;26788;-71
2022/07/05 06:15:56;;;;;;;2.35;1.17;;;19.70;54.70;;;;;;637365;224;26575;-71
2022/07/05 06:18:24;;;;;;;1.92;1.17;;;19.90;54.60;;;;;;637363;224;26895;-67
2022/07/05 06:20:51;;;;;;;5.03;1.30;;;19.90;53.80;;;;;;637447;224;26594;-72
2022/07/05 06:23:19;;;;;;;4.75;1.30;;;20.00;53.80;;;;;;637429;224;26552;-72
2022/07/05 06:25:46;;;;;;;2.45;1.20;;;20.00;53.50;;;;;;637475;225;26586;-73
2022/07/05 06:28:13;;;;;;;1.73;1.00;;;20.10;53.50;;;;;;637447;224;26809;-73
2022/07/05 06:30:40;;;;;;;4.62;1.25;;;20.30;53.40;;;;;;637414;224;26606;-73
2022/07/05 06:33:07;;;;;;;6.80;2.17;;;20.50;53.30;;;;;;637458;224;26800;-73
2022/07/05 06:35:34;;;;;;;12.15;2.75;;;20.60;53.20;;;;;;637419;224;26578;-72
2022/07/05 06:38:02;;;;;;;18.55;5.97;;;20.70;53.20;;;;;;645193;218;26795;-73
2022/07/05 06:40:30;;;;;;;10.07;4.15;;;20.60;52.50;;;;;;641708;220;26570;-73
2022/07/05 06:42:58;;;;;;;9.48;5.32;;;20.60;52.70;;;;;;642897;220;26789;-73
2022/07/05 06:45:25;;;;;;;7.60;3.65;;;20.50;52.60;;;;;;644872;221;26527;-73
2022/07/05 06:48:04;;;;;;;13.50;5.35;;;20.70;52.20;;;;;;641980;221;26556;-73
2022/07/05 06:50:31;;;;;;;10.15;5.25;;;20.70;52.20;;;;;;640633;221;26545;-73
2022/07/05 06:52:59;;;;;;;14.73;4.93;;;20.90;52.70;;;;;;646825;221;26792;-73
2022/07/05 06:55:27;;;;;;;10.95;5.12;;;21.10;52.00;;;;;;640445;221;26514;-73
2022/07/05 06:58:00;;;;;;;11.35;5.28;;;21.10;51.50;;;;;;643916;221;26748;-77
2022/07/05 07:00:28;;;;;;;16.17;7.20;;;21.00;51.20;;;;;;642037;221;26937;-76
2022/07/05 07:02:55;;;;;;;16.27;7.90;;;20.90;51.70;;;;;;639641;222;26572;-76
2022/07/05 07:05:22;;;;;;;17.15;8.02;;;21.00;52.20;;;;;;643042;221;26931;-74
2022/07/05 07:10:22;;;;;;;16.40;8.70;;;21.20;51.50;;;;;;646833;221;26816;-72
2022/07/05 07:12:49;;;;;;;17.65;9.30;;;21.00;51.20;;;;;;640494;221;26599;-73
2022/07/05 07:15:17;;;;;;;19.90;9.27;;;21.30;51.20;;;;;;645383;221;26812;-70
2022/07/05 07:17:44;;;;;;;19.37;9.13;;;21.50;51.00;;;;;;639340;223;26773;-76
2022/07/05 07:20:12;;;;;;;15.57;8.13;;;21.70;51.10;;;;;;641269;220;26802;-73
2022/07/05 07:22:39;;;;;;;15.80;7.57;;;21.80;50.70;;;;;;643217;221;26762;-73
2022/07/05 07:25:08;;;;;;;13.02;8.32;;;21.90;50.10;;;;;;639384;221;26512;-72
2022/07/05 07:27:41;;;;;;;14.25;8.05;;;21.80;49.50;;;;;;639635;223;26525;-71
2022/07/05 07:30:09;;;;;;;19.48;8.18;;;21.60;49.60;;;;;;643323;221;26503;-71
2022/07/05 07:32:37;;;;;;;14.02;8.07;;;21.80;49.30;;;;;;651205;221;26770;-73
2022/07/05 07:35:04;;;;;;;12.85;7.62;;;21.60;49.30;;;;;;651200;221;26476;-71
2022/07/05 07:37:31;;;;;;;15.32;8.40;;;21.50;49.40;;;;;;651172;221;26477;-70
2022/07/05 07:40:00;;;;;;;12.05;6.72;;;21.50;49.40;;;;;;651191;221;26779;-70
2022/07/05 07:42:26;;;;;;;18.75;6.78;;;21.70;49.30;;;;;;651053;221;26466;-75
2022/07/05 07:44:53;;;;;;;13.45;7.43;;;21.70;49.00;;;;;;650855;221;26775;-70
2022/07/05 07:47:20;;;;;;;11.65;6.30;;;21.70;49.10;;;;;;649534;221;26520;-68
2022/07/05 07:49:48;;;;;;;10.55;6.07;;;21.70;49.20;;;;;;639606;221;26812;-69
2022/07/05 07:52:15;;;;;;;9.77;5.93;;;21.90;48.80;;;;;;641276;220;27113;-68
2022/07/05 07:54:42;;;;;;;11.68;5.85;;;22.10;48.40;;;;;;651922;220;26556;-69
2022/07/05 07:57:09;;;;;;;7.93;5.03;;;22.00;48.00;;;;;;651805;221;27090;-68
2022/07/05 07:59:37;;;;;;;11.88;5.57;;;22.10;47.70;;;;;;642976;221;26579;-69
2022/07/05 08:02:04;;;;;;;6.93;4.72;;;22.30;47.20;;;;;;649159;221;26832;-72
2022/07/05 08:04:32;;;;;;;10.50;5.10;;;22.30;46.90;;;;;;649105;221;26578;-69
2022/07/05 08:07:00;;;;;;;10.95;5.55;;;22.30;46.80;;;;;;639381;224;26729;-71
2022/07/05 08:09:27;;;;;;;10.98;5.22;;;22.30;46.80;;;;;;645904;219;26822;-70
2022/07/05 08:11:54;;;;;;;8.98;4.25;;;22.60;46.70;;;;;;641797;221;26586;-70
2022/07/05 08:14:22;;;;;;;9.15;4.68;;;22.20;46.80;;;;;;648840;221;26836;-70
2022/07/05 08:16:49;;;;;;;9.23;4.65;;;22.20;47.10;;;;;;638165;224;26581;-70
2022/07/05 08:21:49;;;;;;;8.20;4.70;;;22.20;47.50;;;;;;638502;225;26587;-70
2022/07/05 08:24:16;;;;;;;7.65;4.05;;;22.00;47.60;;;;;;639144;224;26796;-70
2022/07/05 08:26:43;;;;;;;6.62;3.92;;;22.20;47.10;;;;;;641878;221;26502;-70
2022/07/05 08:29:10;;;;;;;7.97;3.92;;;22.30;47.00;;;;;;645287;221;26791;-70
2022/07/05 08:31:38;;;;;;;5.60;3.80;;;22.20;47.20;;;;;;637783;224;26533;-70
2022/07/05 08:34:07;;;;;;;5.10;3.75;;;22.00;47.30;;;;;;638482;221;26526;-70
2022/07/05 08:36:35;;;;;;;5.25;3.87;;;22.00;47.20;;;;;;648182;221;26554;-70
2022/07/05 08:39:02;;;;;;;6.60;3.30;;;21.90;47.70;;;;;;643459;221;26742;-70
2022/07/05 08:41:29;;;;;;;4.65;3.10;;;22.10;47.80;;;;;;650778;221;26576;-70
2022/07/05 08:43:56;;;;;;;2.10;1.87;;;22.20;47.70;;;;;;640273;221;27112;-70
2022/07/05 08:46:24;;;;;;;5.57;3.22;;;22.20;48.20;;;;;;650238;221;26589;-70
2022/07/05 08:48:52;;;;;;;9.20;3.35;;;22.40;48.10;;;;;;646124;221;26515;-70
2022/07/05 08:51:21;;;;;;;6.78;3.45;;;22.20;48.20;;;;;;641893;223;26610;-70
2022/07/05 08:53:48;;;;;;;4.65;2.92;;;22.20;48.20;;;;;;640073;221;26487;-70
2022/07/05 08:56:15;;;;;;;6.60;2.67;;;22.40;47.80;;;;;;638613;223;26814;-70
2022/07/05 08:58:43;;;;;;;4.57;2.60;;;22.40;47.90;;;;;;648174;221;26573;-70
2022/07/05 09:01:10;;;;;;;6.50;3.33;;;22.60;48.00;;;;;;646612;220;27286;-70
2022/07/05 09:03:40;;;;;;;3.17;2.50;;;22.50;47.90;;;;;;649943;220;26570;-71
2022/07/05 09:06:09;;;;;;;4.85;2.67;;;22.60;47.80;;;;;;640125;221;26524;-70
2022/07/05 09:08:39;;;;;;;4.78;2.83;;;22.50;47.70;;;;;;642132;221;26569;-63
2022/07/05 09:11:03;;;;;;;3.55;2.65;;;22.70;47.80;;;;;;638740;221;26554;-64
2022/07/05 09:13:33;;;;;;;3.92;2.40;;;22.50;47.90;;;;;;638833;221;26550;-63
2022/07/05 09:16:01;;;;;;;2.58;2.25;;;22.50;47.90;;;;;;641543;221;26772;-63
2022/07/05 09:18:40;;;;;;;4.45;2.40;;;22.70;47.50;;;;;;642999;221;26557;-63
2022/07/05 09:21:12;;;;;;;4.43;2.28;;;22.70;47.50;;;;;;643242;221;26557;-63
2022/07/05 09:23:39;;;;;;;3.15;2.17;;;22.70;47.40;;;;;;639217;221;26523;-62
2022/07/05 09:26:06;;;;;;;3.90;2.37;;;22.70;47.30;;;;;;639435;221;26791;-63
2022/07/05 09:28:33;;;;;;;2.92;2.35;;;22.60;47.30;;;;;;639557;220;26566;-63
2022/07/05 09:33:41;;;;;;;3.03;2.15;;;22.50;47.40;;;;;;625525;225;36358;-61
2022/07/05 09:36:09;;;;;;;1.80;1.27;;;22.70;46.90;;;;;;615861;231;26602;-61
2022/07/05 09:38:36;;;;;;;4.78;2.03;;;22.70;46.80;;;;;;620573;230;26558;-61
2022/07/05 09:41:03;;;;;;;1.98;1.87;;;22.70;47.00;;;;;;609150;233;26851;-62
2022/07/05 09:43:31;;;;;;;3.10;2.10;;;22.60;47.10;;;;;;606308;230;26634;-63
2022/07/05 09:46:01;;;;;;;2.78;2.15;;;22.60;47.10;;;;;;604193;238;26640;-63
2022/07/05 09:48:29;;;;;;;5.80;2.50;;;22.60;47.30;;;;;;602083;238;26648;-63
2022/07/05 09:51:06;;;;;;;3.35;1.98;;;22.90;47.20;;;;;;604112;234;26600;-63
2022/07/05 09:53:45;;;;;;;2.95;2.05;;;22.80;47.10;;;;;;604748;236;26593;-63
2022/07/05 09:56:12;;;;;;;2.05;1.75;;;23.00;46.90;;;;;;606087;235;26548;-62
2022/07/05 09:58:40;;;;;;;4.00;1.92;;;23.30;47.00;;;;;;606604;235;26643;-62
2022/07/05 10:01:19;;;;;;;1.75;1.60;;;23.30;47.00;;;;;;603710;235;26619;-63
2022/07/05 10:03:53;;;;;;;4.12;1.90;;;23.50;47.20;;;;;;603785;237;26585;-61
2022/07/05 10:06:20;;;;;;;2.35;1.77;;;23.20;46.80;;;;;;603325;238;26604;-62
2022/07/05 10:08:48;;;;;;;3.12;2.08;;;23.20;47.20;;;;;;604558;238;26591;-62
2022/07/05 10:11:15;;;;;;;61.45;12.60;;;23.10;47.10;;;;;;607271;235;26842;-61
2022/07/05 10:13:42;;;;;;;113.15;24.58;;;23.30;47.00;;;;;;605821;236;26588;-62
2022/07/05 10:16:10;;;;;;;151.25;33.45;;;23.60;46.50;;;;;;607482;235;26594;-61
2022/07/05 10:18:38;;;;;;;134.65;29.92;;;23.40;46.20;;;;;;602768;238;26630;-61
2022/07/05 10:21:07;;;;;;;108.32;26.20;;;23.30;46.20;;;;;;603074;235;26647;-61
2022/07/05 10:23:34;;;;;;;95.35;24.40;;;23.40;46.40;;;;;;610208;235;26647;-61
2022/07/05 10:26:02;;;;;;;76.78;18.35;;;23.40;46.40;;;;;;602750;238;26602;-61
2022/07/05 10:28:30;;;;;;;46.00;10.65;;;23.90;46.00;;;;;;602834;237;26625;-62
2022/07/05 10:30:58;;;;;;;46.80;11.35;;;24.10;45.70;;;;;;601510;237;26664;-61
2022/07/05 10:33:27;;;;;;;34.08;8.98;;;24.10;45.70;;;;;;601901;237;26624;-61
2022/07/05 10:35:54;;;;;;;33.15;8.27;;;24.20;45.10;;;;;;603714;238;26600;-61
2022/07/05 10:38:21;;;;;;;29.02;9.13;;;24.00;44.10;;;;;;603797;235;26828;-61
2022/07/05 10:40:49;;;;;;;23.27;6.00;;;23.70;44.00;;;;;;602467;238;26607;-61
2022/07/05 10:43:17;;;;;;;16.25;5.25;;;23.70;43.90;;;;;;602563;234;26642;-61
2022/07/05 10:45:47;;;;;;;12.00;3.40;;;24.20;44.30;;;;;;611230;234;26852;-61
2022/07/05 10:48:16;;;;;;;11.40;3.28;;;25.30;44.00;;;;;;602485;237;26590;-61
2022/07/05 10:50:45;;;;;;;10.15;3.03;;;25.30;44.00;;;;;;605449;236;26867;-62
2022/07/05 10:53:12;;;;;;;7.47;3.22;;;25.20;43.30;;;;;;604816;237;26607;-61
2022/07/05 10:55:46;;;;;;;9.77;2.78;;;24.70;43.70;;;;;;602637;238;26558;-61
2022/07/05 10:58:20;;;;;;;5.20;2.78;;;24.40;43.80;;;;;;604082;236;26584;-61
2022/07/05 11:00:50;;;;;;;4.53;2.28;;;24.70;44.20;;;;;;605673;233;26609;-61
2022/07/05 11:03:29;;;;;;;4.10;2.35;;;24.70;44.20;;;;;;606613;236;26585;-61
2022/07/05 11:05:57;;;;;;;5.78;2.42;;;24.70;43.80;;;;;;603054;235;26583;-61
2022/07/05 11:08:25;;;;;;;4.80;2.20;;;24.50;44.00;;;;;;604982;235;26589;-61
2022/07/05 11:11:15;;;;;;;8.38;2.55;;;24.40;44.20;;;;;;602728;235;26620;-61
2022/07/05 11:13:43;;;;;;;6.78;2.28;;;24.40;44.20;;;;;;610744;235;26863;-62
2022/07/05 11:16:20;;;;;;;5.22;2.05;;;23.90;44.20;;;;;;609369;230;26596;-61
2022/07/05 11:18:51;;;;;;;8.52;2.25;;;24.30;44.00;;;;;;603317;232;26595;-61
2022/07/05 11:21:18;;;;;;;5.95;2.05;;;24.30;44.00;;;;;;601844;237;26664;-61
2022/07/05 11:23:45;;;;;;;4.75;1.95;;;24.20;43.90;;;;;;601481;237;26875;-61
2022/07/05 11:26:14;;;;;;;5.62;2.12;;;24.10;43.90;;;;;;602886;238;26634;-62
2022/07/05 11:28:42;;;;;;;3.65;1.80;;;24.30;43.70;;;;;;605223;236;26645;-62
2022/07/05 11:31:09;;;;;;;4.43;2.20;;;23.90;43.70;;;;;;608414;235;26662;-62
2022/07/05 11:33:39;;;;;;;4.20;1.77;;;23.90;43.80;;;;;;607417;235;26614;-62
2022/07/05 11:36:07;;;;;;;5.35;2.37;;;23.70;43.90;;;;;;601518;239;26594;-62
2022/07/05 11:38:33;;;;;;;5.18;1.85;;;23.80;43.80;;;;;;601497;238;26646;-62
2022/07/05 11:41:11;;;;;;;7.05;1.90;;;24.30;44.20;;;;;;601729;232;26640;-62
2022/07/05 11:43:38;;;;;;;3.60;1.80;;;24.30;44.20;;;;;;604251;235;27366;-62
2022/07/05 11:46:07;;;;;;;2.53;1.55;;;25.00;42.90;;;;;;606677;236;26608;-62
2022/07/05 11:48:34;;;;;;;3.55;1.77;;;25.00;42.90;;;;;;606719;236;26863;-62
2022/07/05 11:51:16;;;;;;;3.70;1.45;;;25.20;41.70;;;;;;602196;238;26656;-62
2022/07/05 11:53:45;;;;;;;2.92;1.60;;;25.90;42.00;;;;;;602284;237;26638;-62
2022/07/05 11:56:11;;;;;;;1.75;1.65;;;26.10;41.60;;;;;;603435;235;26843;-62
2022/07/05 11:58:38;;;;;;;2.62;1.80;;;26.20;41.30;;;;;;602624;237;26545;-62
2022/07/05 12:01:07;;;;;;;5.03;1.48;;;26.00;41.40;;;;;;607447;234;26896;-61
2022/07/05 12:03:33;;;;;;;4.35;1.48;;;25.70;41.20;;;;;;603619;234;26624;-61
2022/07/05 12:06:00;;;;;;;1.98;1.65;;;25.60;40.80;;;;;;607157;236;26842;-61
2022/07/05 12:08:27;;;;;;;2.35;1.60;;;25.50;40.50;;;;;;606953;234;26542;-61
2022/07/05 12:13:27;;;;;;;2.47;1.42;;;25.10;41.00;;;;;;603322;236;26860;-62
2022/07/05 12:16:00;;;;;;;2.80;1.62;;;25.00;41.30;;;;;;610082;236;26636;-61
2022/07/05 12:18:27;;;;;;;1.50;1.40;;;25.30;41.10;;;;;;605647;236;26818;-61
2022/07/05 12:20:54;;;;;;;3.65;1.60;;;25.80;41.10;;;;;;601807;238;26613;-61
2022/07/05 12:23:21;;;;;;;2.17;1.58;;;25.90;40.30;;;;;;601950;238;26826;-61
2022/07/05 12:25:49;;;;;;;1.60;1.17;;;26.70;39.60;;;;;;603394;238;26570;-62
2022/07/05 12:28:17;;;;;;;3.45;1.60;;;26.90;39.40;;;;;;603192;238;26617;-61
2022/07/05 12:30:45;;;;;;;2.60;1.40;;;27.20;39.10;;;;;;602747;237;26621;-63
2022/07/05 12:33:13;;;;;;;3.67;1.30;;;27.50;38.20;;;;;;602420;235;26666;-61
2022/07/05 12:35:40;;;;;;;5.30;1.50;;;27.40;38.10;;;;;;603874;237;26582;-61
2022/07/05 12:38:16;;;;;;;4.20;1.45;;;27.60;38.60;;;;;;604662;235;26618;-61
2022/07/05 12:40:42;;;;;;;2.22;1.42;;;27.10;38.10;;;;;;609564;235;26990;-61
2022/07/05 12:43:13;;;;;;;2.12;1.42;;;26.40;38.80;;;;;;604495;235;26582;-61
2022/07/05 12:45:40;;;;;;;3.45;1.27;;;26.10;38.80;;;;;;602068;238;26683;-61
2022/07/05 12:48:08;;;;;;;2.55;1.40;;;25.70;39.80;;;;;;604472;237;26854;-62
2022/07/05 12:50:44;;;;;;;3.12;1.37;;;25.60;39.70;;;;;;602754;237;27260;-61
2022/07/05 12:58:19;;;;;;;3.92;1.37;;;27.10;38.20;;;;;;604611;232;26606;-61
2022/07/05 13:00:46;;;;;;;3.85;1.23;;;27.60;38.20;;;;;;605547;236;26657;-61
2022/07/05 13:03:14;;;;;;;1.30;1.20;;;27.50;37.70;;;;;;602681;235;26640;-63
2022/07/05 13:05:41;;;;;;;3.60;1.30;;;28.10;37.40;;;;;;602198;238;26641;-62